Time;durP1;ratioP1;P1;durP2;ratioP2;P2;SDS_P1;SDS_P2;PMS_P1;PMS_P2;Temp;Humidity;BMP_temperature;BMP_pressure;BME280_temperature;BME280_humidity;BME280_pressure;Samples;Min_cycle;Max_cycle;Signal;HPM_P1;HPM_P2
2023/02/25 00:00:18;;;;;;;14.97;3.83;;;;;;;;;;6208356;23;20154;-80
2023/02/25 00:02:45;;;;;;;19.70;3.50;;;;;;;;;;6206774;23;21106;-79
2023/02/25 00:05:12;;;;;;;14.70;3.37;;;;;;;;;;6209055;23;20173;-79
2023/02/25 00:07:39;;;;;;;10.63;3.03;;;;;;;;;;6210174;23;20190;-79
2023/02/25 00:10:07;;;;;;;18.77;3.22;;;;;;;;;;6210771;23;20043;-78
2023/02/25 00:12:33;;;;;;;11.63;4.07;;;;;;;;;;6210738;23;20180;-78
2023/02/25 00:14:59;;;;;;;16.97;3.00;;;;;;;;;;6210942;23;20497;-79
2023/02/25 00:17:25;;;;;;;12.60;3.47;;;;;;;;;;6210599;23;20181;-79
2023/02/25 00:19:51;;;;;;;14.13;4.07;;;;;;;;;;6208816;23;20232;-78
2023/02/25 00:22:18;;;;;;;10.57;2.73;;;;;;;;;;6209397;23;20411;-79
2023/02/25 00:24:44;;;;;;;11.40;2.70;;;;;;;;;;6207818;23;20162;-79
2023/02/25 00:27:10;;;;;;;16.30;3.43;;;;;;;;;;6207017;23;20751;-80
2023/02/25 00:29:36;;;;;;;14.83;3.37;;;;;;;;;;6209846;23;20242;-80
2023/02/25 00:32:01;;;;;;;15.03;3.20;;;;;;;;;;6208287;23;20151;-79
2023/02/25 00:34:27;;;;;;;11.43;3.37;;;;;;;;;;6208573;23;20189;-80
2023/02/25 00:36:53;;;;;;;10.97;3.00;;;;;;;;;;6208167;23;20590;-79
2023/02/25 00:39:19;;;;;;;10.67;2.60;;;;;;;;;;6208463;23;20565;-79
2023/02/25 00:41:45;;;;;;;13.37;3.37;;;;;;;;;;6208552;23;20155;-80
2023/02/25 00:44:11;;;;;;;18.00;4.53;;;;;;;;;;6206502;23;20150;-80
2023/02/25 00:46:37;;;;;;;10.07;3.07;;;;;;;;;;6207642;23;20177;-81
2023/02/25 00:49:03;;;;;;;8.47;3.13;;;;;;;;;;6205736;23;20231;-80
2023/02/25 00:51:31;;;;;;;11.70;3.37;;;;;;;;;;6207903;23;20146;-81
2023/02/25 00:53:57;;;;;;;11.03;3.20;;;;;;;;;;6210185;23;20212;-80
2023/02/25 00:56:24;;;;;;;9.57;3.33;;;;;;;;;;6210021;23;20170;-80
2023/02/25 00:58:51;;;;;;;17.63;3.30;;;;;;;;;;6208974;23;20245;-79
2023/02/25 01:01:25;;;;;;;12.17;3.07;;;;;;;;;;6211404;23;20158;-81
2023/02/25 01:03:51;;;;;;;9.00;3.13;;;;;;;;;;6210574;23;20554;-81
2023/02/25 01:06:17;;;;;;;10.20;2.40;;;;;;;;;;6211389;23;20209;-79
2023/02/25 01:08:44;;;;;;;11.87;3.10;;;;;;;;;;6209947;23;20170;-79
2023/02/25 01:11:14;;;;;;;10.27;2.67;;;;;;;;;;6206664;23;20161;-79
2023/02/25 01:13:41;;;;;;;9.43;2.47;;;;;;;;;;6209165;23;20139;-80
2023/02/25 01:16:11;;;;;;;9.10;2.37;;;;;;;;;;6209306;23;20178;-81
2023/02/25 01:18:37;;;;;;;10.43;2.67;;;;;;;;;;6209256;23;20225;-80
2023/02/25 01:21:03;;;;;;;9.63;2.87;;;;;;;;;;6209343;23;20154;-78
2023/02/25 01:23:29;;;;;;;9.77;2.80;;;;;;;;;;6209259;23;20161;-78
2023/02/25 01:25:55;;;;;;;11.20;2.57;;;;;;;;;;6209406;23;20181;-80
2023/02/25 01:28:21;;;;;;;6.47;2.60;;;;;;;;;;6210212;23;20170;-78
2023/02/25 01:30:47;;;;;;;13.07;2.90;;;;;;;;;;6210229;23;20232;-79
2023/02/25 01:33:13;;;;;;;12.63;3.67;;;;;;;;;;6209376;23;20146;-78
2023/02/25 01:35:39;;;;;;;16.07;4.00;;;;;;;;;;6208278;23;20150;-81
2023/02/25 01:38:05;;;;;;;12.60;4.40;;;;;;;;;;6208167;23;20237;-81
2023/02/25 01:40:31;;;;;;;17.30;5.17;;;;;;;;;;6208460;23;20159;-79
2023/02/25 01:42:57;;;;;;;19.73;4.63;;;;;;;;;;6210377;23;20162;-78
2023/02/25 01:45:24;;;;;;;20.33;4.70;;;;;;;;;;6209177;23;20308;-79
2023/02/25 01:48:02;;;;;;;15.10;4.83;;;;;;;;;;6207832;23;20324;-79
2023/02/25 01:50:33;;;;;;;10.87;3.63;;;;;;;;;;6207026;23;20189;-79
2023/02/25 01:53:00;;;;;;;17.07;4.60;;;;;;;;;;6208960;23;20165;-78
2023/02/25 01:55:26;;;;;;;12.67;3.83;;;;;;;;;;6209829;23;20150;-80
2023/02/25 01:57:52;;;;;;;15.13;3.87;;;;;;;;;;6208778;23;20202;-78
2023/02/25 02:00:18;;;;;;;12.23;2.70;;;;;;;;;;6209697;23;20150;-80
2023/02/25 02:02:46;;;;;;;10.40;2.77;;;;;;;;;;6211343;23;20155;-81
2023/02/25 02:05:12;;;;;;;7.10;1.90;;;;;;;;;;6210005;23;20158;-78
2023/02/25 02:07:38;;;;;;;6.80;1.87;;;;;;;;;;6208957;23;20268;-78
2023/02/25 02:10:04;;;;;;;6.90;1.83;;;;;;;;;;6208605;23;20595;-78
2023/02/25 02:12:35;;;;;;;4.17;1.10;;;;;;;;;;6208945;23;20154;-79
2023/02/25 02:15:03;;;;;;;3.83;1.20;;;;;;;;;;6207278;23;20188;-81
2023/02/25 02:17:29;;;;;;;4.60;1.60;;;;;;;;;;6208200;23;20177;-78
2023/02/25 02:19:54;;;;;;;4.97;1.07;;;;;;;;;;6207543;23;20154;-78
2023/02/25 02:22:26;;;;;;;2.37;0.80;;;;;;;;;;6209869;23;20218;-78
2023/02/25 02:25:04;;;;;;;3.27;0.90;;;;;;;;;;6208947;23;20166;-80
2023/02/25 02:27:44;;;;;;;3.07;0.80;;;;;;;;;;6208953;23;20213;-78
2023/02/25 02:30:25;;;;;;;4.63;1.20;;;;;;;;;;6209271;23;20181;-78
2023/02/25 02:33:11;;;;;;;3.10;1.00;;;;;;;;;;6210926;23;20146;-79
2023/02/25 02:35:41;;;;;;;1.63;0.60;;;;;;;;;;6210602;23;20135;-79
2023/02/25 02:38:12;;;;;;;4.07;0.70;;;;;;;;;;6210377;23;20188;-78
2023/02/25 02:41:11;;;;;;;3.47;0.80;;;;;;;;;;6210512;23;20150;-79
2023/02/25 02:43:57;;;;;;;1.73;0.80;;;;;;;;;;6160294;23;20229;-79
2023/02/25 02:46:25;;;;;;;1.77;0.77;;;;;;;;;;6210336;23;20171;-78
2023/02/25 02:48:55;;;;;;;2.57;0.70;;;;;;;;;;6210203;23;20175;-80
2023/02/25 02:51:24;;;;;;;2.73;0.80;;;;;;;;;;6211238;23;20131;-78
2023/02/25 02:53:52;;;;;;;2.13;0.40;;;;;;;;;;6210262;23;20232;-79
2023/02/25 02:56:20;;;;;;;2.10;0.80;;;;;;;;;;6210774;23;20246;-79
2023/02/25 02:58:47;;;;;;;1.23;0.60;;;;;;;;;;6208754;23;20201;-80
2023/02/25 03:01:16;;;;;;;1.83;0.50;;;;;;;;;;6210591;23;20614;-79
2023/02/25 03:03:45;;;;;;;2.30;0.53;;;;;;;;;;6209613;23;20154;-80
2023/02/25 03:06:13;;;;;;;3.27;0.67;;;;;;;;;;6210280;23;20630;-79
2023/02/25 03:08:44;;;;;;;1.67;0.90;;;;;;;;;;6210391;23;20181;-80
2023/02/25 03:11:10;;;;;;;1.47;0.70;;;;;;;;;;6210300;23;20160;-79
2023/02/25 03:13:36;;;;;;;2.07;0.67;;;;;;;;;;6207930;23;20595;-79
2023/02/25 03:16:05;;;;;;;2.40;0.73;;;;;;;;;;6208967;23;20230;-79
2023/02/25 03:18:35;;;;;;;2.43;0.90;;;;;;;;;;6207343;23;20600;-80
2023/02/25 03:21:03;;;;;;;4.60;1.27;;;;;;;;;;6207520;23;20169;-78
2023/02/25 03:23:31;;;;;;;3.50;1.00;;;;;;;;;;6207310;23;20186;-79
2023/02/25 03:26:17;;;;;;;3.77;0.93;;;;;;;;;;6208668;23;20147;-78
2023/02/25 03:28:45;;;;;;;5.40;1.10;;;;;;;;;;6207336;23;20185;-80
2023/02/25 03:31:15;;;;;;;3.90;1.10;;;;;;;;;;6207663;23;20482;-80
2023/02/25 03:33:46;;;;;;;5.27;1.10;;;;;;;;;;6209288;23;20146;-80
2023/02/25 03:36:14;;;;;;;6.73;1.77;;;;;;;;;;6207879;23;20487;-79
2023/02/25 03:38:42;;;;;;;2.60;0.90;;;;;;;;;;6209925;23;20773;-78
2023/02/25 03:41:10;;;;;;;6.17;1.30;;;;;;;;;;6207723;23;20616;-80
2023/02/25 03:43:45;;;;;;;3.97;1.13;;;;;;;;;;6208989;23;20157;-78
2023/02/25 03:46:12;;;;;;;6.37;1.60;;;;;;;;;;6206784;23;20188;-79
2023/02/25 03:48:38;;;;;;;3.77;1.27;;;;;;;;;;6208244;23;20197;-80
2023/02/25 03:51:04;;;;;;;3.27;1.00;;;;;;;;;;6206101;23;20162;-80
2023/02/25 03:53:31;;;;;;;5.63;1.20;;;;;;;;;;6208270;23;20162;-80
2023/02/25 03:56:04;;;;;;;4.43;1.10;;;;;;;;;;6210474;23;20161;-79
2023/02/25 03:58:32;;;;;;;5.67;1.43;;;;;;;;;;6208747;23;20182;-80
2023/02/25 04:01:01;;;;;;;6.20;1.30;;;;;;;;;;6209459;23;20182;-80
2023/02/25 04:03:27;;;;;;;3.40;1.00;;;;;;;;;;6208866;23;20154;-80
2023/02/25 04:05:53;;;;;;;4.67;1.30;;;;;;;;;;6207949;23;20154;-80
2023/02/25 04:08:19;;;;;;;5.10;1.20;;;;;;;;;;6206963;23;20195;-78
2023/02/25 04:10:46;;;;;;;4.50;1.20;;;;;;;;;;6208925;23;20224;-79
2023/02/25 04:13:13;;;;;;;3.43;1.20;;;;;;;;;;6208315;23;20870;-79
2023/02/25 04:15:39;;;;;;;3.77;1.30;;;;;;;;;;6212825;23;20150;-81
2023/02/25 04:18:05;;;;;;;2.97;1.00;;;;;;;;;;6212280;23;20166;-80
2023/02/25 04:20:31;;;;;;;2.73;1.10;;;;;;;;;;6210668;23;20646;-78
2023/02/25 04:22:58;;;;;;;4.97;1.30;;;;;;;;;;6211115;23;20162;-80
2023/02/25 04:25:24;;;;;;;2.40;1.00;;;;;;;;;;6211996;23;20162;-79
2023/02/25 04:27:50;;;;;;;2.80;1.10;;;;;;;;;;6211465;23;20186;-79
2023/02/25 04:30:16;;;;;;;3.07;1.10;;;;;;;;;;6210752;23;20162;-78
2023/02/25 04:32:42;;;;;;;3.23;1.07;;;;;;;;;;6212239;23;20223;-78
2023/02/25 04:35:12;;;;;;;4.47;1.20;;;;;;;;;;6210344;23;20236;-78
2023/02/25 04:37:38;;;;;;;2.40;1.00;;;;;;;;;;6210282;23;20186;-80
2023/02/25 04:40:10;;;;;;;1.97;1.20;;;;;;;;;;6212377;23;20177;-80
2023/02/25 04:42:36;;;;;;;2.30;1.10;;;;;;;;;;6210979;23;20543;-78
2023/02/25 04:45:02;;;;;;;3.67;1.00;;;;;;;;;;6210017;23;20157;-79
2023/02/25 04:47:28;;;;;;;3.27;1.13;;;;;;;;;;6210939;23;20255;-78
2023/02/25 04:49:54;;;;;;;3.60;0.87;;;;;;;;;;6210443;23;20162;-79
2023/02/25 04:52:20;;;;;;;1.40;0.90;;;;;;;;;;6211069;23;20166;-79
2023/02/25 04:54:46;;;;;;;2.47;1.20;;;;;;;;;;6212171;23;20154;-80
2023/02/25 04:57:13;;;;;;;3.10;1.17;;;;;;;;;;6211414;23;20188;-80
2023/02/25 04:59:39;;;;;;;1.33;1.03;;;;;;;;;;6210185;23;20273;-79
2023/02/25 05:02:06;;;;;;;2.30;1.00;;;;;;;;;;6211478;23;20154;-80
2023/02/25 05:04:33;;;;;;;2.13;1.27;;;;;;;;;;6212313;23;20202;-80
2023/02/25 05:06:59;;;;;;;2.00;1.10;;;;;;;;;;6210933;23;20696;-80
2023/02/25 05:09:25;;;;;;;2.83;1.30;;;;;;;;;;6211047;23;20151;-80
2023/02/25 05:11:51;;;;;;;4.77;1.43;;;;;;;;;;6211769;23;20139;-78
2023/02/25 05:14:17;;;;;;;2.47;1.60;;;;;;;;;;6210831;23;20161;-79
2023/02/25 05:16:43;;;;;;;3.10;1.50;;;;;;;;;;6211784;23;20177;-80
2023/02/25 05:19:14;;;;;;;3.77;1.17;;;;;;;;;;6209565;23;20638;-78
2023/02/25 05:21:40;;;;;;;5.17;1.60;;;;;;;;;;6210114;23;20154;-80
2023/02/25 05:24:06;;;;;;;3.23;1.30;;;;;;;;;;6211925;23;20165;-80
2023/02/25 05:26:32;;;;;;;2.20;1.27;;;;;;;;;;6211451;23;20178;-81
2023/02/25 05:28:58;;;;;;;4.90;1.27;;;;;;;;;;6211738;23;20228;-79
2023/02/25 05:31:24;;;;;;;2.90;1.40;;;;;;;;;;6211610;23;20463;-80
2023/02/25 05:33:50;;;;;;;2.87;1.50;;;;;;;;;;6211328;23;20151;-79
2023/02/25 05:36:16;;;;;;;2.23;1.57;;;;;;;;;;6211482;23;20206;-78
2023/02/25 05:38:43;;;;;;;2.33;1.30;;;;;;;;;;6210906;23;20192;-79
2023/02/25 05:41:10;;;;;;;1.60;1.30;;;;;;;;;;6212157;23;20210;-79
2023/02/25 05:43:36;;;;;;;6.47;2.33;;;;;;;;;;6210041;23;20150;-80
2023/02/25 05:46:03;;;;;;;2.93;1.33;;;;;;;;;;6209485;23;20155;-79
2023/02/25 05:48:30;;;;;;;3.43;1.70;;;;;;;;;;6211912;23;20177;-79
2023/02/25 05:51:04;;;;;;;2.60;1.50;;;;;;;;;;6212116;23;20150;-78
2023/02/25 05:53:30;;;;;;;3.27;1.40;;;;;;;;;;6212252;23;20153;-78
2023/02/25 05:55:56;;;;;;;3.63;1.30;;;;;;;;;;6211591;23;20614;-79
2023/02/25 05:58:22;;;;;;;2.20;1.20;;;;;;;;;;6211845;23;20182;-79
2023/02/25 06:00:48;;;;;;;1.67;1.30;;;;;;;;;;6214387;23;20150;-80
2023/02/25 06:03:14;;;;;;;6.70;1.57;;;;;;;;;;6213087;23;20154;-79
2023/02/25 06:05:41;;;;;;;2.37;1.23;;;;;;;;;;6213732;23;20158;-79
2023/02/25 06:08:07;;;;;;;3.30;1.40;;;;;;;;;;6213033;23;20217;-80
2023/02/25 06:10:37;;;;;;;4.67;1.60;;;;;;;;;;6213544;23;20158;-79
2023/02/25 06:13:03;;;;;;;3.60;1.53;;;;;;;;;;6212793;23;20155;-80
2023/02/25 06:15:29;;;;;;;2.77;1.10;;;;;;;;;;6212913;23;20594;-79
2023/02/25 06:17:55;;;;;;;3.43;1.13;;;;;;;;;;6211511;23;20182;-80
2023/02/25 06:20:24;;;;;;;2.40;1.20;;;;;;;;;;6212380;23;20158;-78
2023/02/25 06:22:50;;;;;;;5.90;1.73;;;;;;;;;;6211200;23;20158;-76
2023/02/25 06:25:16;;;;;;;2.50;1.13;;;;;;;;;;6212286;23;20155;-79
2023/02/25 06:27:42;;;;;;;2.60;1.40;;;;;;;;;;6213064;23;20185;-78
2023/02/25 06:30:08;;;;;;;2.13;1.30;;;;;;;;;;6212822;23;20147;-79
2023/02/25 06:32:34;;;;;;;3.60;1.43;;;;;;;;;;6211659;23;20142;-79
2023/02/25 06:35:00;;;;;;;3.50;1.77;;;;;;;;;;6212317;23;20181;-79
2023/02/25 06:37:26;;;;;;;3.30;1.50;;;;;;;;;;6211417;23;20205;-78
2023/02/25 06:39:52;;;;;;;2.47;1.70;;;;;;;;;;6210319;23;20162;-79
2023/02/25 06:42:18;;;;;;;3.33;1.53;;;;;;;;;;6211244;23;20154;-79
2023/02/25 06:44:44;;;;;;;3.17;1.60;;;;;;;;;;6209670;23;20162;-79
2023/02/25 06:47:10;;;;;;;3.03;1.60;;;;;;;;;;6210135;23;20197;-79
2023/02/25 06:49:36;;;;;;;3.57;1.60;;;;;;;;;;6213490;23;20170;-78
2023/02/25 06:52:02;;;;;;;3.47;1.90;;;;;;;;;;6209182;23;20553;-78
2023/02/25 06:54:28;;;;;;;2.83;2.00;;;;;;;;;;6210473;23;20192;-79
2023/02/25 06:56:54;;;;;;;3.23;2.17;;;;;;;;;;6214595;23;20178;-77
2023/02/25 06:59:20;;;;;;;4.23;2.20;;;;;;;;;;6207348;23;20205;-78
2023/02/25 07:01:46;;;;;;;2.93;2.13;;;;;;;;;;6205589;23;20469;-81
2023/02/25 07:04:16;;;;;;;3.43;1.90;;;;;;;;;;6210647;23;20185;-81
2023/02/25 07:06:42;;;;;;;3.20;2.00;;;;;;;;;;6207265;23;20571;-79
2023/02/25 07:09:09;;;;;;;3.20;1.90;;;;;;;;;;6207752;23;20167;-77
2023/02/25 07:11:35;;;;;;;2.80;1.60;;;;;;;;;;6206413;23;20150;-79
2023/02/25 07:14:02;;;;;;;3.93;2.00;;;;;;;;;;6207927;23;20154;-78
2023/02/25 07:16:33;;;;;;;5.43;2.50;;;;;;;;;;6210855;23;20159;-78
2023/02/25 07:19:01;;;;;;;2.50;1.53;;;;;;;;;;6212137;23;20198;-79
2023/02/25 07:21:28;;;;;;;2.90;2.03;;;;;;;;;;6211798;23;20163;-78
2023/02/25 07:23:54;;;;;;;3.63;2.00;;;;;;;;;;6210706;23;20219;-79
2023/02/25 07:26:20;;;;;;;4.13;2.13;;;;;;;;;;6209876;23;20229;-80
2023/02/25 07:28:49;;;;;;;2.83;1.50;;;;;;;;;;6204652;23;20228;-78
2023/02/25 07:31:17;;;;;;;4.17;1.60;;;;;;;;;;6208455;23;20630;-80
2023/02/25 07:33:43;;;;;;;3.40;1.70;;;;;;;;;;6207676;23;20622;-77
2023/02/25 07:36:10;;;;;;;2.57;1.60;;;;;;;;;;6206303;23;20582;-78
2023/02/25 07:38:37;;;;;;;2.60;1.50;;;;;;;;;;6207175;23;20166;-78
2023/02/25 07:41:04;;;;;;;3.63;1.70;;;;;;;;;;6206909;23;20161;-77
2023/02/25 07:43:31;;;;;;;2.80;1.60;;;;;;;;;;6207356;23;20159;-78
2023/02/25 07:45:57;;;;;;;2.20;1.50;;;;;;;;;;6208738;23;20231;-78
2023/02/25 07:48:23;;;;;;;3.57;1.50;;;;;;;;;;6207227;23;20294;-77
2023/02/25 07:50:49;;;;;;;3.10;1.50;;;;;;;;;;6206998;23;20159;-79
2023/02/25 07:53:15;;;;;;;1.50;1.30;;;;;;;;;;6208494;23;20778;-79
2023/02/25 07:55:43;;;;;;;2.80;1.77;;;;;;;;;;6207344;23;20158;-77
2023/02/25 07:58:10;;;;;;;2.00;1.20;;;;;;;;;;6207310;23;20205;-78
2023/02/25 08:00:37;;;;;;;1.87;1.63;;;;;;;;;;6206104;23;20166;-77
2023/02/25 08:03:04;;;;;;;2.40;1.53;;;;;;;;;;6207258;23;20134;-77
2023/02/25 08:05:33;;;;;;;2.57;1.60;;;;;;;;;;6202948;23;20166;-75
2023/02/25 08:07:59;;;;;;;3.27;1.83;;;;;;;;;;6205284;23;20189;-79
2023/02/25 08:10:26;;;;;;;1.87;1.60;;;;;;;;;;6205987;23;20789;-77
2023/02/25 08:12:52;;;;;;;4.67;1.70;;;;;;;;;;6204450;23;20765;-76
2023/02/25 08:15:18;;;;;;;3.63;1.83;;;;;;;;;;6205236;23;20161;-78
2023/02/25 08:17:44;;;;;;;4.53;2.27;;;;;;;;;;6203265;23;20207;-77
2023/02/25 08:20:11;;;;;;;2.80;1.90;;;;;;;;;;6206810;23;20438;-77
2023/02/25 08:22:37;;;;;;;2.47;1.83;;;;;;;;;;6207014;23;20155;-76
2023/02/25 08:25:04;;;;;;;2.70;1.50;;;;;;;;;;6206861;23;20158;-79
2023/02/25 08:27:31;;;;;;;2.67;1.87;;;;;;;;;;6203806;23;20556;-77
2023/02/25 08:29:57;;;;;;;3.87;2.30;;;;;;;;;;6206145;23;20150;-78
2023/02/25 08:32:24;;;;;;;2.50;1.70;;;;;;;;;;6203331;23;20154;-78
2023/02/25 08:34:55;;;;;;;3.23;1.47;;;;;;;;;;6204154;23;20232;-78
2023/02/25 08:37:24;;;;;;;2.60;1.80;;;;;;;;;;6203286;23;20265;-77
2023/02/25 08:39:50;;;;;;;2.43;1.67;;;;;;;;;;6204379;23;20196;-77
2023/02/25 08:42:17;;;;;;;1.40;1.20;;;;;;;;;;6205800;23;20158;-78
2023/02/25 08:44:44;;;;;;;1.70;1.40;;;;;;;;;;6204953;23;20238;-79
2023/02/25 08:47:10;;;;;;;2.73;1.53;;;;;;;;;;6203570;23;20685;-76
2023/02/25 08:49:36;;;;;;;3.07;2.10;;;;;;;;;;6206901;23;20149;-78
2023/02/25 08:52:02;;;;;;;5.13;2.60;;;;;;;;;;6210231;23;20571;-78
2023/02/25 08:54:28;;;;;;;1.90;1.60;;;;;;;;;;6210387;23;20743;-78
2023/02/25 08:56:56;;;;;;;3.33;1.67;;;;;;;;;;6208524;23;20201;-78
2023/02/25 08:59:22;;;;;;;3.47;2.30;;;;;;;;;;6210526;23;20256;-78
2023/02/25 09:01:49;;;;;;;5.77;2.97;;;;;;;;;;6205368;23;20154;-78
2023/02/25 09:04:17;;;;;;;3.30;2.40;;;;;;;;;;6208786;23;20192;-77
2023/02/25 09:06:46;;;;;;;6.63;3.83;;;;;;;;;;6204251;23;20241;-77
2023/02/25 09:09:12;;;;;;;3.83;2.57;;;;;;;;;;6205759;23;20279;-78
2023/02/25 09:11:39;;;;;;;2.37;2.13;;;;;;;;;;6204790;23;20142;-78
2023/02/25 09:14:05;;;;;;;5.13;3.00;;;;;;;;;;6202921;23;20233;-76
2023/02/25 09:16:31;;;;;;;3.70;1.80;;;;;;;;;;6202653;23;20594;-77
2023/02/25 09:18:57;;;;;;;1.93;1.60;;;;;;;;;;6204408;23;20174;-78
2023/02/25 09:21:24;;;;;;;2.67;1.50;;;;;;;;;;6204325;23;20278;-78
2023/02/25 09:23:50;;;;;;;1.80;1.20;;;;;;;;;;6199256;23;20147;-78
2023/02/25 09:26:19;;;;;;;2.40;1.63;;;;;;;;;;6202041;23;20146;-77
2023/02/25 09:28:46;;;;;;;1.80;1.70;;;;;;;;;;6210092;23;21075;-79
2023/02/25 09:31:13;;;;;;;1.70;1.43;;;;;;;;;;6214217;23;20211;-78
2023/02/25 09:33:41;;;;;;;2.30;1.40;;;;;;;;;;6214809;23;20782;-78
2023/02/25 09:36:08;;;;;;;1.90;1.60;;;;;;;;;;6209454;23;20150;-78
2023/02/25 09:38:35;;;;;;;3.27;2.83;;;;;;;;;;6203316;23;20309;-78
2023/02/25 09:41:01;;;;;;;2.33;1.53;;;;;;;;;;6205761;23;20139;-78
2023/02/25 09:43:36;;;;;;;2.97;1.20;;;;;;;;;;6205900;23;20143;-78
2023/02/25 09:46:06;;;;;;;2.13;1.30;;;;;;;;;;6205289;23;20636;-78
2023/02/25 09:48:34;;;;;;;2.40;1.30;;;;;;;;;;6204621;23;20206;-78
2023/02/25 09:51:04;;;;;;;3.57;1.30;;;;;;;;;;6202966;23;20143;-77
2023/02/25 09:53:30;;;;;;;1.57;0.97;;;;;;;;;;6204137;23;20142;-79
2023/02/25 09:55:57;;;;;;;1.40;1.07;;;;;;;;;;6211434;23;20151;-77
2023/02/25 09:58:26;;;;;;;1.10;1.00;;;;;;;;;;6209687;23;20178;-80
2023/02/25 10:00:55;;;;;;;2.93;1.07;;;;;;;;;;6206683;23;20150;-78
2023/02/25 10:03:25;;;;;;;1.50;1.00;;;;;;;;;;6205912;23;20155;-79
2023/02/25 10:05:52;;;;;;;1.13;1.03;;;;;;;;;;6205317;23;20190;-79
2023/02/25 10:08:24;;;;;;;1.80;1.20;;;;;;;;;;6204606;23;20271;-80
2023/02/25 10:11:03;;;;;;;1.97;1.20;;;;;;;;;;6206059;23;20742;-79
2023/02/25 10:13:47;;;;;;;3.03;1.30;;;;;;;;;;6205327;23;20217;-77
2023/02/25 10:16:25;;;;;;;3.20;1.50;;;;;;;;;;6206405;23;20617;-79
2023/02/25 10:18:58;;;;;;;2.20;1.17;;;;;;;;;;6207342;23;20176;-80
2023/02/25 10:21:34;;;;;;;2.30;1.20;;;;;;;;;;6206128;23;20166;-79
2023/02/25 10:24:09;;;;;;;2.57;1.53;;;;;;;;;;6206673;23;20142;-79
2023/02/25 10:26:41;;;;;;;1.60;1.30;;;;;;;;;;6203773;23;20531;-77
2023/02/25 10:29:12;;;;;;;1.10;1.00;;;;;;;;;;6206853;23;20167;-77
2023/02/25 10:31:38;;;;;;;4.03;1.50;;;;;;;;;;6202563;23;20143;-77
2023/02/25 10:34:19;;;;;;;1.90;1.10;;;;;;;;;;6202975;23;20280;-78
2023/02/25 10:36:47;;;;;;;3.43;1.03;;;;;;;;;;6201207;23;20166;-78
2023/02/25 10:39:13;;;;;;;3.60;2.13;;;;;;;;;;6203300;23;20225;-78
2023/02/25 10:41:39;;;;;;;2.13;1.10;;;;;;;;;;6203158;23;20155;-78
2023/02/25 10:44:05;;;;;;;1.20;0.80;;;;;;;;;;6204757;23;20154;-79
2023/02/25 10:46:37;;;;;;;2.20;1.30;;;;;;;;;;6205528;23;20217;-77
2023/02/25 10:49:14;;;;;;;3.00;1.30;;;;;;;;;;6205589;23;20170;-79
2023/02/25 10:52:01;;;;;;;3.03;1.70;;;;;;;;;;6205451;23;20162;-78
2023/02/25 10:54:28;;;;;;;2.93;1.10;;;;;;;;;;6205111;23;20241;-78
2023/02/25 10:56:54;;;;;;;1.67;0.80;;;;;;;;;;6207144;23;20838;-79
2023/02/25 10:59:34;;;;;;;2.13;0.70;;;;;;;;;;6209316;23;20178;-77
2023/02/25 11:02:00;;;;;;;2.00;0.80;;;;;;;;;;6209246;23;20139;-78
2023/02/25 11:04:36;;;;;;;0.80;0.60;;;;;;;;;;6208106;23;20558;-79
2023/02/25 11:07:22;;;;;;;1.57;0.80;;;;;;;;;;6204798;23;20185;-77
2023/02/25 11:10:05;;;;;;;1.40;1.20;;;;;;;;;;6207404;23;20139;-77
2023/02/25 11:12:38;;;;;;;3.53;1.20;;;;;;;;;;6207417;23;20173;-77
2023/02/25 11:15:18;;;;;;;1.80;1.20;;;;;;;;;;6207120;23;20135;-78
2023/02/25 11:17:45;;;;;;;1.83;0.90;;;;;;;;;;6204865;23;20178;-77
2023/02/25 11:20:23;;;;;;;2.77;1.60;;;;;;;;;;6207045;23;20221;-77
2023/02/25 11:22:52;;;;;;;2.13;1.07;;;;;;;;;;6205417;23;20150;-77
2023/02/25 11:25:30;;;;;;;2.13;1.00;;;;;;;;;;6207605;23;20154;-77
2023/02/25 11:27:57;;;;;;;2.27;1.60;;;;;;;;;;6202377;23;20268;-77
2023/02/25 11:30:37;;;;;;;4.17;1.57;;;;;;;;;;6203659;23;20147;-73
2023/02/25 11:33:23;;;;;;;2.37;1.30;;;;;;;;;;6203031;23;20150;-76
2023/02/25 11:35:54;;;;;;;2.50;1.60;;;;;;;;;;6204103;23;20162;-76
2023/02/25 11:38:28;;;;;;;3.37;1.60;;;;;;;;;;6205306;23;20179;-77
2023/02/25 11:40:54;;;;;;;2.53;2.07;;;;;;;;;;6205491;23;20154;-77
2023/02/25 11:43:22;;;;;;;1.80;1.37;;;;;;;;;;6204200;23;20182;-75
2023/02/25 11:45:51;;;;;;;3.80;1.97;;;;;;;;;;6204071;23;20147;-76
2023/02/25 11:48:19;;;;;;;1.20;1.10;;;;;;;;;;6205119;23;20190;-76
2023/02/25 11:50:45;;;;;;;2.57;1.03;;;;;;;;;;6204849;23;20139;-75
2023/02/25 11:53:16;;;;;;;2.23;1.03;;;;;;;;;;6205631;23;20224;-77
2023/02/25 11:55:58;;;;;;;1.60;0.90;;;;;;;;;;6201927;23;20151;-74
2023/02/25 11:58:24;;;;;;;2.00;0.80;;;;;;;;;;6203186;23;20197;-76
2023/02/25 12:00:54;;;;;;;1.97;1.20;;;;;;;;;;6205100;23;20154;-77
2023/02/25 12:03:38;;;;;;;2.53;1.00;;;;;;;;;;6204853;23;20475;-76
2023/02/25 12:06:09;;;;;;;1.90;1.07;;;;;;;;;;6205546;23;20154;-77
2023/02/25 12:08:41;;;;;;;3.17;1.50;;;;;;;;;;6205041;23;20206;-78
2023/02/25 12:11:29;;;;;;;13.97;6.47;;;;;;;;;;6203444;23;20146;-77
2023/02/25 12:14:04;;;;;;;2.33;1.33;;;;;;;;;;6203601;23;20159;-77
2023/02/25 12:16:50;;;;;;;2.63;1.57;;;;;;;;;;6203900;23;20425;-78
2023/02/25 12:19:22;;;;;;;1.50;1.40;;;;;;;;;;6202650;23;20178;-77
2023/02/25 12:21:48;;;;;;;1.83;1.30;;;;;;;;;;6206305;23;20241;-76
2023/02/25 12:24:31;;;;;;;1.83;1.00;;;;;;;;;;6207156;23;20176;-78
2023/02/25 12:27:16;;;;;;;2.13;1.50;;;;;;;;;;6205329;23;20234;-77
2023/02/25 12:30:07;;;;;;;3.30;1.57;;;;;;;;;;6206726;23;20212;-81
2023/02/25 12:32:49;;;;;;;2.40;1.90;;;;;;;;;;6149702;23;20159;-78
2023/02/25 12:35:23;;;;;;;3.03;2.73;;;;;;;;;;6204609;23;20150;-76
2023/02/25 12:38:08;;;;;;;2.20;2.00;;;;;;;;;;6201130;23;20186;-73
2023/02/25 12:40:37;;;;;;;3.53;2.00;;;;;;;;;;6204265;23;20237;-77
2023/02/25 12:43:23;;;;;;;2.87;2.10;;;;;;;;;;6201345;23;20162;-78
2023/02/25 12:46:08;;;;;;;2.27;1.17;;;;;;;;;;6203956;23;20154;-75
2023/02/25 12:48:38;;;;;;;5.43;2.80;;;;;;;;;;6202690;23;20190;-74
2023/02/25 12:51:13;;;;;;;1.80;1.60;;;;;;;;;;6203505;23;20134;-75
2023/02/25 12:53:45;;;;;;;2.90;1.57;;;;;;;;;;6202552;23;20158;-76
2023/02/25 12:56:27;;;;;;;4.57;2.50;;;;;;;;;;6200538;23;20228;-75
2023/02/25 12:59:09;;;;;;;4.60;2.37;;;;;;;;;;6203117;23;20201;-75
2023/02/25 13:01:56;;;;;;;3.07;1.60;;;;;;;;;;6203006;23;20294;-75
2023/02/25 13:04:41;;;;;;;2.43;1.33;;;;;;;;;;6187751;23;20168;-75
2023/02/25 13:07:29;;;;;;;2.10;1.07;;;;;;;;;;6202546;23;20232;-77
2023/02/25 13:10:04;;;;;;;3.13;1.10;;;;;;;;;;6202192;23;20629;-77
2023/02/25 13:12:30;;;;;;;2.37;1.00;;;;;;;;;;6201883;23;20169;-76
2023/02/25 13:15:08;;;;;;;4.60;1.10;;;;;;;;;;6202340;23;20154;-77
2023/02/25 13:17:40;;;;;;;1.93;1.20;;;;;;;;;;6199832;23;20166;-77
2023/02/25 13:20:22;;;;;;;2.53;1.30;;;;;;;;;;6202797;23;20592;-76
2023/02/25 13:22:54;;;;;;;1.30;1.03;;;;;;;;;;6201398;23;20147;-76
2023/02/25 13:25:22;;;;;;;2.67;1.13;;;;;;;;;;6197990;23;20155;-77
2023/02/25 13:28:09;;;;;;;4.97;1.80;;;;;;;;;;6198099;23;20596;-76
2023/02/25 13:30:46;;;;;;;4.53;2.13;;;;;;;;;;6201998;23;20139;-77
2023/02/25 13:33:25;;;;;;;4.57;2.03;;;;;;;;;;6202744;23;20142;-76
2023/02/25 13:36:09;;;;;;;3.90;2.17;;;;;;;;;;6200852;23;20219;-76
2023/02/25 13:38:35;;;;;;;7.30;4.40;;;;;;;;;;6202924;23;20209;-76
2023/02/25 13:41:01;;;;;;;4.20;1.60;;;;;;;;;;6203466;23;20142;-77
2023/02/25 13:43:37;;;;;;;2.93;1.00;;;;;;;;;;6201557;23;20150;-77
2023/02/25 13:46:21;;;;;;;3.10;1.23;;;;;;;;;;6202183;23;20146;-75
2023/02/25 13:49:06;;;;;;;3.10;0.80;;;;;;;;;;6202411;23;20181;-77
2023/02/25 13:51:50;;;;;;;2.53;0.97;;;;;;;;;;6204319;23;20189;-78
2023/02/25 13:54:27;;;;;;;3.10;1.13;;;;;;;;;;6205468;23;20138;-75
2023/02/25 13:56:56;;;;;;;2.57;0.70;;;;;;;;;;6202217;23;20949;-77
2023/02/25 13:59:46;;;;;;;2.67;0.97;;;;;;;;;;6205568;23;20227;-78
2023/02/25 14:02:30;;;;;;;3.20;1.30;;;;;;;;;;6203613;23;20170;-79
2023/02/25 14:05:06;;;;;;;3.10;1.23;;;;;;;;;;6202708;23;20135;-77
2023/02/25 14:07:54;;;;;;;2.30;1.43;;;;;;;;;;6197718;23;21009;-77
2023/02/25 14:10:29;;;;;;;3.33;1.60;;;;;;;;;;6199352;23;20151;-78
2023/02/25 14:12:55;;;;;;;5.50;1.60;;;;;;;;;;6199087;23;20583;-77
2023/02/25 14:15:39;;;;;;;2.50;1.80;;;;;;;;;;6200356;23;20162;-77
2023/02/25 14:18:19;;;;;;;6.07;3.00;;;;;;;;;;6200031;23;20261;-77
2023/02/25 14:21:04;;;;;;;6.60;2.60;;;;;;;;;;6204665;23;20579;-77
2023/02/25 14:23:43;;;;;;;3.40;2.20;;;;;;;;;;6203079;23;20166;-77
2023/02/25 14:26:27;;;;;;;3.10;1.63;;;;;;;;;;6204152;23;20150;-77
2023/02/25 14:29:04;;;;;;;3.20;1.07;;;;;;;;;;6203791;23;20179;-76
2023/02/25 14:31:33;;;;;;;3.73;0.80;;;;;;;;;;6205788;23;20138;-77
2023/02/25 14:34:10;;;;;;;3.43;0.90;;;;;;;;;;6204909;23;20985;-77
2023/02/25 14:36:36;;;;;;;3.27;0.80;;;;;;;;;;6203235;23;20157;-77
2023/02/25 14:39:26;;;;;;;4.73;2.30;;;;;;;;;;6205339;23;20166;-78
2023/02/25 14:42:11;;;;;;;7.37;1.90;;;;;;;;;;6210152;23;20155;-82
2023/02/25 14:44:55;;;;;;;4.00;2.03;;;;;;;;;;6207723;23;20511;-77
2023/02/25 14:47:50;;;;;;;2.77;1.20;;;;;;;;;;6203544;23;20217;-76
2023/02/25 14:50:31;;;;;;;3.70;1.00;;;;;;;;;;6178543;23;20158;-77
2023/02/25 14:52:57;;;;;;;5.23;0.83;;;;;;;;;;6204171;23;20161;-77
2023/02/25 14:55:23;;;;;;;2.27;0.83;;;;;;;;;;6204602;23;20486;-77
2023/02/25 14:58:18;;;;;;;2.30;1.07;;;;;;;;;;6204937;23;20243;-77